Time;durP1;ratioP1;P1;durP2;ratioP2;P2;SDS_P1;SDS_P2;PMS_P1;PMS_P2;Temp;Humidity;BMP_temperature;BMP_pressure;BME280_temperature;BME280_humidity;BME280_pressure;Samples;Min_cycle;Max_cycle;Signal;HPM_P1;HPM_P2
2022/01/04 00:00:17;;;;;;;22.73;9.80;;;8.70;99.90;;;;;;4919092;28;90318;-41
2022/01/04 00:02:43;;;;;;;24.65;9.38;;;8.70;99.90;;;;;;4919887;28;89682;-38
2022/01/04 00:05:10;;;;;;;16.27;7.50;;;8.70;99.90;;;;;;4919120;28;89878;-37
2022/01/04 00:07:36;;;;;;;15.30;7.95;;;8.70;99.90;;;;;;4919370;28;89372;-34
2022/01/04 00:10:03;;;;;;;16.85;8.90;;;8.70;99.90;;;;;;4919290;28;89606;-42
2022/01/04 00:15:13;;;;;;;22.00;8.40;;;8.70;99.90;;;;;;4919480;28;89859;-38
2022/01/04 00:17:38;;;;;;;18.13;9.38;;;8.80;99.90;;;;;;4919617;28;87623;-39
2022/01/04 00:20:06;;;;;;;15.77;8.95;;;8.80;99.90;;;;;;4919116;28;90787;-37
2022/01/04 00:22:32;;;;;;;16.80;8.88;;;8.70;99.90;;;;;;4919255;28;89653;-36
2022/01/04 00:24:57;;;;;;;23.05;8.23;;;8.70;99.90;;;;;;4919094;28;88100;-37
2022/01/04 00:27:23;;;;;;;31.83;9.50;;;8.80;99.90;;;;;;4919356;28;87802;-36
2022/01/04 00:29:49;;;;;;;19.65;7.90;;;8.80;99.90;;;;;;4919058;28;89876;-39
2022/01/04 00:32:14;;;;;;;16.08;8.43;;;8.90;99.90;;;;;;4918242;28;90422;-38
2022/01/04 00:34:41;;;;;;;17.15;7.95;;;8.80;99.90;;;;;;4919259;28;90210;-36
2022/01/04 00:37:07;;;;;;;21.23;9.52;;;8.80;99.90;;;;;;4919014;28;87628;-36
2022/01/04 00:39:33;;;;;;;22.27;9.05;;;8.80;99.90;;;;;;4919019;28;90776;-36
2022/01/04 00:41:59;;;;;;;16.88;8.85;;;8.80;99.90;;;;;;4918694;28;89971;-38
2022/01/04 00:44:25;;;;;;;27.92;8.52;;;8.80;99.90;;;;;;4918945;28;89598;-40
2022/01/04 00:46:51;;;;;;;17.05;8.65;;;8.80;99.90;;;;;;4919423;28;88236;-36
2022/01/04 00:49:17;;;;;;;20.10;9.48;;;8.80;99.90;;;;;;4919067;28;90217;-37
2022/01/04 00:51:45;;;;;;;19.75;8.93;;;8.80;99.90;;;;;;4919229;28;88999;-39
2022/01/04 00:54:13;;;;;;;22.77;10.65;;;8.80;99.90;;;;;;4917524;28;89362;-40
2022/01/04 00:56:39;;;;;;;15.27;8.57;;;8.80;99.90;;;;;;4917850;28;87958;-39
2022/01/04 00:59:05;;;;;;;16.83;9.38;;;8.80;99.90;;;;;;4918074;28;90369;-41
2022/01/04 01:01:32;;;;;;;22.20;11.10;;;8.80;99.90;;;;;;4918719;28;89747;-35
2022/01/04 01:03:57;;;;;;;22.75;10.85;;;8.80;99.90;;;;;;4917369;28;88651;-40
2022/01/04 01:06:23;;;;;;;23.77;10.90;;;8.80;99.90;;;;;;4918498;28;87769;-35
2022/01/04 01:08:49;;;;;;;19.95;9.35;;;8.70;99.90;;;;;;4917972;28;89018;-42
2022/01/04 01:11:17;;;;;;;14.35;8.55;;;8.70;99.90;;;;;;4918321;28;89706;-37
2022/01/04 01:13:43;;;;;;;19.92;10.25;;;8.70;99.90;;;;;;4918518;28;89649;-37
2022/01/04 01:16:09;;;;;;;19.45;10.45;;;8.70;99.90;;;;;;4918519;28;88506;-39
2022/01/04 01:18:36;;;;;;;24.75;10.98;;;8.70;99.90;;;;;;4917913;28;90096;-36
2022/01/04 01:21:03;;;;;;;23.73;11.02;;;8.70;99.90;;;;;;4916662;28;90996;-40
2022/01/04 01:23:29;;;;;;;21.13;9.73;;;8.70;99.90;;;;;;4917725;28;90309;-37
2022/01/04 01:25:56;;;;;;;23.83;9.00;;;8.70;99.90;;;;;;4918038;28;87515;-36
2022/01/04 01:28:21;;;;;;;18.13;9.65;;;8.70;99.90;;;;;;4918011;28;90233;-37
2022/01/04 01:30:47;;;;;;;23.10;9.07;;;8.70;99.90;;;;;;4918188;28;89645;-39
2022/01/04 01:33:13;;;;;;;19.02;10.07;;;8.70;99.90;;;;;;4917650;28;88231;-40
2022/01/04 01:35:40;;;;;;;18.85;9.77;;;8.70;99.90;;;;;;4917316;28;88018;-35
2022/01/04 01:38:08;;;;;;;25.38;9.50;;;8.70;99.90;;;;;;4918004;28;90548;-38
2022/01/04 01:40:34;;;;;;;26.40;11.27;;;8.70;99.90;;;;;;4917641;28;89600;-37
2022/01/04 01:43:00;;;;;;;15.50;9.90;;;8.70;99.90;;;;;;4915469;28;89365;-34
2022/01/04 01:45:26;;;;;;;23.23;9.88;;;8.70;99.90;;;;;;4917879;28;88010;-35
2022/01/04 01:47:52;;;;;;;25.65;11.23;;;8.70;99.90;;;;;;4917904;28;89336;-36
2022/01/04 01:50:19;;;;;;;20.10;10.45;;;8.70;99.90;;;;;;4916958;28;90478;-39
2022/01/04 01:52:47;;;;;;;17.13;10.07;;;8.70;99.90;;;;;;4917175;28;89657;-37
2022/01/04 01:55:14;;;;;;;22.52;10.77;;;8.70;99.90;;;;;;4916433;28;87514;-42
2022/01/04 01:57:40;;;;;;;21.65;10.77;;;8.70;99.90;;;;;;4917163;28;90440;-37
2022/01/04 02:00:09;;;;;;;18.42;9.60;;;8.60;99.90;;;;;;4916850;28;89288;-34
2022/01/04 02:02:34;;;;;;;23.05;11.77;;;8.70;99.90;;;;;;4917837;28;90300;-36
2022/01/04 02:05:01;;;;;;;21.55;9.63;;;8.70;99.90;;;;;;4916315;28;88003;-40
2022/01/04 02:07:28;;;;;;;21.25;9.57;;;8.70;99.90;;;;;;4917806;28;89708;-41
2022/01/04 02:10:02;;;;;;;19.38;10.57;;;8.70;99.90;;;;;;4917112;28;89768;-39
2022/01/04 02:12:33;;;;;;;23.05;10.50;;;8.70;99.90;;;;;;4916961;28;90697;-39
2022/01/04 02:14:59;;;;;;;19.67;10.30;;;8.70;99.90;;;;;;4916622;28;87661;-46
2022/01/04 02:17:25;;;;;;;16.52;9.40;;;8.70;99.90;;;;;;4917109;28;89987;-42
2022/01/04 02:19:58;;;;;;;24.10;10.80;;;8.70;99.90;;;;;;4917568;28;89277;-36
2022/01/04 02:22:24;;;;;;;20.58;9.82;;;8.70;99.90;;;;;;4916983;28;89641;-36
2022/01/04 02:24:51;;;;;;;21.25;10.57;;;8.70;99.90;;;;;;4917527;28;87654;-41
2022/01/04 02:27:17;;;;;;;22.42;9.50;;;8.70;99.90;;;;;;4917131;28;90357;-37
2022/01/04 02:29:44;;;;;;;19.48;11.65;;;8.70;99.90;;;;;;4917445;28;89612;-34
2022/01/04 02:32:10;;;;;;;25.85;12.07;;;8.70;99.90;;;;;;4916560;28;89463;-37
2022/01/04 02:34:36;;;;;;;26.50;12.07;;;8.60;99.90;;;;;;4916150;28;88668;-38
2022/01/04 02:37:02;;;;;;;26.27;10.85;;;8.60;99.90;;;;;;4916219;28;90088;-37
2022/01/04 02:39:29;;;;;;;24.58;11.50;;;8.60;99.90;;;;;;4916618;28;89615;-36
2022/01/04 02:41:55;;;;;;;20.67;12.55;;;8.60;99.90;;;;;;4916608;28;89227;-36
2022/01/04 02:44:20;;;;;;;21.83;11.00;;;8.50;99.90;;;;;;4916654;28;88928;-42
2022/01/04 02:46:46;;;;;;;21.92;11.05;;;8.50;99.90;;;;;;4916463;28;90565;-37
2022/01/04 02:49:11;;;;;;;20.02;12.35;;;8.40;99.90;;;;;;4916309;28;88535;-34
2022/01/04 02:51:38;;;;;;;20.75;14.00;;;8.40;99.90;;;;;;4916962;28;88217;-38
2022/01/04 02:54:03;;;;;;;14.98;11.27;;;8.40;99.90;;;;;;4916385;28;88686;-37
2022/01/04 02:56:29;;;;;;;25.83;13.18;;;8.30;99.90;;;;;;4916242;28;90033;-40
2022/01/04 02:59:01;;;;;;;20.30;12.48;;;8.30;99.90;;;;;;4916116;28;90501;-40
2022/01/04 03:01:26;;;;;;;27.33;12.70;;;8.30;99.90;;;;;;4916469;28;89280;-35
2022/01/04 03:03:52;;;;;;;21.23;14.18;;;8.30;99.90;;;;;;4916663;28;88197;-36
2022/01/04 03:06:17;;;;;;;17.83;12.52;;;8.20;99.90;;;;;;4916091;28;90175;-39
2022/01/04 03:08:43;;;;;;;20.50;14.13;;;8.20;99.90;;;;;;4916221;28;89682;-36
2022/01/04 03:11:08;;;;;;;24.83;13.43;;;8.20;99.90;;;;;;4916168;28;89447;-36
2022/01/04 03:13:34;;;;;;;22.42;12.82;;;8.20;99.90;;;;;;4915473;28;87779;-33
2022/01/04 03:16:00;;;;;;;24.65;13.88;;;8.20;99.90;;;;;;4915853;28;90431;-36
2022/01/04 03:18:25;;;;;;;21.63;13.40;;;8.20;99.90;;;;;;4915273;28;89580;-38
2022/01/04 03:20:51;;;;;;;22.63;13.70;;;8.20;99.90;;;;;;4915890;28;88188;-35
2022/01/04 03:23:17;;;;;;;29.63;15.45;;;8.20;99.90;;;;;;4915908;28;88043;-35
2022/01/04 03:25:42;;;;;;;23.33;13.85;;;8.20;99.90;;;;;;4915628;28;90174;-38
2022/01/04 03:28:08;;;;;;;29.90;15.90;;;8.20;99.90;;;;;;4916075;28;89686;-41
2022/01/04 03:30:34;;;;;;;23.83;15.80;;;8.10;99.90;;;;;;4915592;28;88628;-38
2022/01/04 03:33:00;;;;;;;27.92;16.27;;;8.10;99.90;;;;;;4916052;28;87693;-34
2022/01/04 03:35:26;;;;;;;22.63;17.20;;;8.10;99.90;;;;;;4915782;28;90752;-37
2022/01/04 03:37:52;;;;;;;25.63;15.63;;;8.10;99.90;;;;;;4915734;28;89661;-37
2022/01/04 03:40:18;;;;;;;25.48;17.17;;;8.00;99.90;;;;;;4915430;28;88404;-39
2022/01/04 03:42:44;;;;;;;31.75;17.58;;;8.00;99.90;;;;;;4915985;28;87513;-35
2022/01/04 03:45:09;;;;;;;22.45;17.02;;;8.00;99.90;;;;;;4915190;28;90206;-37
2022/01/04 03:47:35;;;;;;;33.25;18.50;;;7.90;99.90;;;;;;4915448;28;90332;-36
2022/01/04 03:50:01;;;;;;;31.60;19.25;;;8.00;99.90;;;;;;4915643;28;90303;-37
2022/01/04 03:52:27;;;;;;;30.67;17.60;;;8.00;99.90;;;;;;4915466;28;87467;-35
2022/01/04 03:54:52;;;;;;;28.08;17.90;;;8.00;99.90;;;;;;4915385;28;90225;-36
2022/01/04 03:57:18;;;;;;;30.88;18.23;;;8.00;99.90;;;;;;4914925;28;89188;-37
2022/01/04 03:59:44;;;;;;;26.33;18.50;;;8.00;99.90;;;;;;4915721;28;89541;-37
2022/01/04 04:02:09;;;;;;;37.17;18.20;;;8.00;99.90;;;;;;4915284;28;87921;-42
2022/01/04 04:04:35;;;;;;;41.05;21.63;;;8.00;99.90;;;;;;4915339;28;90653;-38
2022/01/04 04:07:02;;;;;;;24.70;19.77;;;8.00;99.90;;;;;;4915463;28;89749;-41
2022/01/04 04:09:27;;;;;;;30.50;21.20;;;8.00;99.90;;;;;;4914936;28;89598;-35
2022/01/04 04:11:53;;;;;;;30.75;20.95;;;8.00;99.90;;;;;;4915046;28;88335;-45
2022/01/04 04:14:18;;;;;;;26.88;19.58;;;8.00;99.90;;;;;;4914875;28;90386;-38
2022/01/04 04:16:44;;;;;;;36.38;20.50;;;8.10;99.90;;;;;;4915517;28;89399;-35
2022/01/04 04:19:09;;;;;;;35.30;21.13;;;8.00;99.90;;;;;;4914957;28;89951;-38
2022/01/04 04:21:35;;;;;;;36.13;21.42;;;8.10;99.90;;;;;;4915442;28;87654;-39
2022/01/04 04:24:00;;;;;;;34.03;20.00;;;8.00;99.90;;;;;;4915352;28;90290;-40
2022/01/04 04:26:26;;;;;;;36.67;20.35;;;8.10;99.90;;;;;;4915231;28;89576;-33
2022/01/04 04:28:52;;;;;;;39.90;22.00;;;8.10;99.90;;;;;;4917972;28;88870;-36
2022/01/04 04:31:17;;;;;;;47.15;22.65;;;8.10;99.90;;;;;;4918457;28;87643;-37
2022/01/04 04:33:43;;;;;;;34.05;21.73;;;8.10;99.90;;;;;;4918346;28;88842;-37
2022/01/04 04:36:09;;;;;;;27.65;20.35;;;8.10;99.90;;;;;;4917928;28;91039;-40
2022/01/04 04:38:35;;;;;;;34.75;23.00;;;8.10;99.90;;;;;;4918410;28;90904;-36
2022/01/04 04:41:01;;;;;;;37.75;21.48;;;8.10;99.90;;;;;;4918563;28;88216;-40
2022/01/04 04:43:26;;;;;;;31.30;23.15;;;8.10;99.90;;;;;;4918124;28;90356;-35
2022/01/04 04:45:52;;;;;;;36.60;23.20;;;8.10;99.90;;;;;;4918259;28;89512;-37
2022/01/04 04:48:18;;;;;;;29.50;22.77;;;8.10;99.90;;;;;;4918337;28;90004;-41
2022/01/04 04:50:43;;;;;;;28.70;22.42;;;8.10;99.90;;;;;;4918099;28;87766;-37
2022/01/04 04:53:09;;;;;;;37.60;23.60;;;8.10;99.90;;;;;;4918367;28;90441;-43
2022/01/04 04:55:35;;;;;;;35.80;21.92;;;8.10;99.90;;;;;;4917638;28;90040;-38
2022/01/04 04:58:00;;;;;;;43.08;22.40;;;8.20;99.90;;;;;;4918071;28;89909;-35
2022/01/04 05:00:26;;;;;;;38.22;24.02;;;8.20;99.90;;;;;;4917515;28;88052;-37
2022/01/04 05:02:51;;;;;;;43.35;25.38;;;8.10;99.90;;;;;;4917976;28;90682;-36
2022/01/04 05:05:17;;;;;;;34.45;24.20;;;8.10;99.90;;;;;;4917417;28;88113;-34
2022/01/04 05:07:42;;;;;;;35.67;22.73;;;8.10;99.90;;;;;;4917937;28;89547;-37
2022/01/04 05:10:09;;;;;;;34.00;23.48;;;8.10;99.90;;;;;;4918203;28;87584;-44
2022/01/04 05:12:35;;;;;;;30.70;22.30;;;8.20;99.90;;;;;;4917797;28;90257;-37
2022/01/04 05:15:02;;;;;;;31.15;22.27;;;8.20;99.90;;;;;;4917638;28;89857;-36
2022/01/04 05:17:28;;;;;;;36.20;23.75;;;8.10;99.90;;;;;;4917771;28;89185;-39
2022/01/04 05:19:53;;;;;;;40.38;24.98;;;8.10;99.90;;;;;;4918108;28;88512;-41
2022/01/04 05:22:19;;;;;;;36.10;24.35;;;8.10;99.90;;;;;;4917128;28;89481;-37
2022/01/04 05:24:45;;;;;;;39.05;24.73;;;8.20;99.90;;;;;;4917079;28;90687;-36
2022/01/04 05:27:10;;;;;;;34.78;23.73;;;8.10;99.90;;;;;;4917645;28;89825;-36
2022/01/04 05:29:36;;;;;;;42.40;25.05;;;8.10;99.90;;;;;;4917703;28;87677;-34
2022/01/04 05:32:02;;;;;;;34.17;23.05;;;8.10;99.90;;;;;;4917618;28;90140;-42
2022/01/04 05:34:27;;;;;;;32.17;22.75;;;8.10;99.90;;;;;;4917154;28;89992;-37
2022/01/04 05:36:53;;;;;;;32.00;22.75;;;8.10;99.90;;;;;;4917345;28;89588;-35
2022/01/04 05:39:18;;;;;;;35.47;21.10;;;8.10;99.90;;;;;;4916801;28;87637;-38
2022/01/04 05:41:45;;;;;;;29.40;21.83;;;8.10;99.90;;;;;;4917458;28;90449;-38
2022/01/04 05:44:10;;;;;;;32.97;20.70;;;8.10;99.90;;;;;;4917015;28;91143;-41
2022/01/04 05:46:36;;;;;;;30.85;21.17;;;8.10;99.90;;;;;;4917198;28;88648;-36
2022/01/04 05:49:02;;;;;;;28.90;20.35;;;8.10;99.90;;;;;;4917141;28;88285;-40
2022/01/04 05:51:28;;;;;;;35.30;21.45;;;8.10;99.90;;;;;;4916833;28;90056;-36
2022/01/04 05:53:53;;;;;;;31.10;21.38;;;8.10;99.90;;;;;;4917242;28;89812;-34
2022/01/04 05:56:19;;;;;;;33.92;21.20;;;8.10;99.90;;;;;;4916537;28;89288;-37
2022/01/04 05:58:44;;;;;;;31.40;20.75;;;8.10;99.90;;;;;;4917289;28;88513;-37
2022/01/04 06:01:10;;;;;;;29.27;22.05;;;8.10;99.90;;;;;;4917747;28;88536;-35
2022/01/04 06:03:35;;;;;;;28.60;20.20;;;8.10;99.90;;;;;;4916644;28;89665;-36
2022/01/04 06:06:01;;;;;;;31.73;21.17;;;8.10;99.90;;;;;;4916874;28;88580;-36
2022/01/04 06:08:32;;;;;;;32.40;20.90;;;8.10;99.90;;;;;;4916999;28;87530;-34
2022/01/04 06:10:58;;;;;;;27.70;20.23;;;8.10;99.90;;;;;;4916688;28;88326;-37
2022/01/04 06:16:08;;;;;;;29.58;20.48;;;8.10;99.90;;;;;;4916593;28;90579;-34
2022/01/04 06:18:34;;;;;;;31.35;21.13;;;8.10;99.90;;;;;;4916329;28;87635;-41
2022/01/04 06:20:59;;;;;;;29.83;19.55;;;8.10;99.90;;;;;;4916661;28;90249;-38
2022/01/04 06:23:25;;;;;;;31.63;21.33;;;8.10;99.90;;;;;;4916154;28;89547;-37
2022/01/04 06:25:52;;;;;;;31.25;21.73;;;8.10;99.90;;;;;;4915289;28;88614;-39
2022/01/04 06:28:19;;;;;;;32.17;21.07;;;8.10;99.90;;;;;;4916381;28;87637;-41
2022/01/04 06:30:45;;;;;;;25.85;20.25;;;8.10;99.90;;;;;;4916619;28;90586;-39
2022/01/04 06:33:11;;;;;;;45.42;22.25;;;8.20;99.90;;;;;;4916438;28;89683;-39
2022/01/04 06:35:37;;;;;;;38.40;21.65;;;8.20;99.90;;;;;;4916058;28;88596;-36
2022/01/04 06:38:04;;;;;;;28.48;21.67;;;8.20;99.90;;;;;;4915672;28;88360;-38
2022/01/04 06:40:30;;;;;;;28.63;19.27;;;8.20;99.90;;;;;;4916030;28;90128;-45
2022/01/04 06:42:55;;;;;;;30.95;21.60;;;8.20;99.90;;;;;;4916358;28;89973;-38
2022/01/04 06:45:21;;;;;;;33.97;21.08;;;8.20;99.90;;;;;;4916533;28;89210;-39
2022/01/04 06:47:47;;;;;;;25.38;19.77;;;8.10;99.90;;;;;;4916833;28;87684;-38
2022/01/04 06:50:15;;;;;;;38.22;23.13;;;8.10;99.90;;;;;;4916121;28;90602;-36
2022/01/04 06:52:41;;;;;;;30.48;20.80;;;8.20;99.90;;;;;;4915266;28;89890;-39
2022/01/04 06:55:07;;;;;;;31.80;20.73;;;8.10;99.90;;;;;;4899393;28;89687;-34
2022/01/04 06:57:33;;;;;;;38.80;23.48;;;8.10;99.90;;;;;;4916185;28;88320;-34
2022/01/04 06:59:58;;;;;;;29.88;21.38;;;8.20;99.90;;;;;;4916243;28;90180;-35
2022/01/04 07:02:24;;;;;;;31.13;21.63;;;8.20;99.90;;;;;;4915476;28;90474;-41
2022/01/04 07:04:50;;;;;;;38.45;22.55;;;8.20;99.90;;;;;;4915945;28;90629;-42
2022/01/04 07:07:15;;;;;;;36.05;21.42;;;8.30;99.90;;;;;;4915801;28;87640;-40
2022/01/04 07:09:41;;;;;;;34.65;23.00;;;8.20;99.90;;;;;;4916071;28;90116;-41
2022/01/04 07:12:08;;;;;;;29.60;21.33;;;8.20;99.90;;;;;;4916247;28;89321;-38
2022/01/04 07:14:33;;;;;;;38.00;21.95;;;8.20;99.90;;;;;;4915320;28;89692;-38
2022/01/04 07:16:59;;;;;;;31.75;22.27;;;8.20;99.90;;;;;;4916386;28;88278;-38
2022/01/04 07:19:25;;;;;;;35.75;22.45;;;8.20;99.90;;;;;;4915758;28;90340;-35
2022/01/04 07:21:51;;;;;;;32.72;22.95;;;8.20;99.90;;;;;;4915932;28;89607;-40
2022/01/04 07:24:17;;;;;;;32.10;23.73;;;8.10;99.90;;;;;;4915433;28;89186;-40
2022/01/04 07:26:42;;;;;;;37.90;23.83;;;8.10;99.90;;;;;;4915722;28;88169;-38
2022/01/04 07:29:08;;;;;;;39.92;23.70;;;8.10;99.90;;;;;;4916124;28;89960;-37
2022/01/04 07:31:33;;;;;;;40.42;23.08;;;8.10;99.90;;;;;;4915971;28;89785;-39
2022/01/04 07:33:59;;;;;;;35.80;23.95;;;8.10;99.90;;;;;;4915730;28;89607;-34
2022/01/04 07:36:27;;;;;;;28.35;24.63;;;8.10;99.90;;;;;;4915767;28;88557;-35
2022/01/04 07:38:53;;;;;;;41.03;24.55;;;8.00;99.90;;;;;;4915980;28;90794;-39
2022/01/04 07:41:18;;;;;;;42.22;27.77;;;8.10;99.90;;;;;;4915369;28;88539;-35
2022/01/04 07:43:44;;;;;;;33.45;26.13;;;8.10;99.90;;;;;;4916046;28;88685;-38
2022/01/04 07:46:09;;;;;;;39.15;26.38;;;8.00;99.90;;;;;;4915865;28;87696;-38
2022/01/04 07:48:35;;;;;;;31.83;21.85;;;8.00;99.90;;;;;;4915510;28;90064;-38
2022/01/04 07:51:01;;;;;;;31.50;24.35;;;8.00;99.90;;;;;;4914010;28;90681;-37
2022/01/04 07:53:28;;;;;;;41.45;25.10;;;8.10;99.90;;;;;;4878347;28;92365;-40
2022/01/04 07:55:53;;;;;;;35.30;24.13;;;8.00;99.90;;;;;;4907720;28;88135;-40
2022/01/04 07:58:19;;;;;;;36.00;25.92;;;8.00;99.90;;;;;;4915596;28;90356;-37
2022/01/04 08:00:44;;;;;;;35.30;24.27;;;8.00;99.90;;;;;;4895012;28;90016;-38
2022/01/04 08:03:10;;;;;;;33.80;25.60;;;8.00;99.90;;;;;;4917270;28;89634;-41
2022/01/04 08:05:37;;;;;;;36.85;24.70;;;8.00;99.90;;;;;;4918761;28;88033;-38
2022/01/04 08:08:02;;;;;;;31.80;24.63;;;8.00;99.90;;;;;;4919356;28;89153;-33
2022/01/04 08:10:28;;;;;;;39.67;26.83;;;8.00;99.90;;;;;;4915156;28;90025;-39
2022/01/04 08:12:54;;;;;;;39.40;24.10;;;8.00;99.90;;;;;;4918394;28;89628;-36
2022/01/04 08:15:20;;;;;;;36.10;25.17;;;8.00;99.90;;;;;;4918512;28;88227;-37
2022/01/04 08:17:45;;;;;;;42.58;25.67;;;8.00;99.90;;;;;;4918338;28;90399;-40
2022/01/04 08:20:11;;;;;;;36.38;24.42;;;8.00;99.90;;;;;;4918917;28;89648;-36
2022/01/04 08:22:37;;;;;;;40.60;25.00;;;8.00;99.90;;;;;;4879547;28;89555;-36
2022/01/04 08:25:06;;;;;;;33.80;25.35;;;8.00;99.90;;;;;;4918021;28;88149;-39
2022/01/04 08:27:32;;;;;;;38.20;23.55;;;8.00;99.90;;;;;;4917602;28;90146;-37
2022/01/04 08:29:58;;;;;;;37.20;23.17;;;8.00;99.90;;;;;;4917938;28;89583;-40
2022/01/04 08:32:24;;;;;;;33.25;24.05;;;8.00;99.90;;;;;;4918456;28;89444;-36
2022/01/04 08:34:50;;;;;;;35.33;24.75;;;8.00;99.90;;;;;;4918663;28;87601;-41
2022/01/04 08:37:16;;;;;;;38.50;24.70;;;8.00;99.90;;;;;;4917427;28;90319;-39
2022/01/04 08:39:42;;;;;;;39.45;25.73;;;8.00;99.90;;;;;;4914704;28;91437;-36
2022/01/04 08:42:07;;;;;;;33.67;24.98;;;8.00;99.90;;;;;;4918106;28;90130;-34
2022/01/04 08:44:36;;;;;;;31.98;25.13;;;8.00;99.90;;;;;;4916573;28;87693;-42
2022/01/04 08:47:02;;;;;;;36.03;23.55;;;8.00;99.90;;;;;;4915079;28;89290;-40
2022/01/04 08:49:30;;;;;;;38.80;25.17;;;7.90;99.90;;;;;;4917484;28;90055;-40
2022/01/04 08:51:55;;;;;;;36.00;26.07;;;7.90;99.90;;;;;;4918725;28;89393;-35
2022/01/04 08:54:21;;;;;;;33.60;25.92;;;7.90;99.90;;;;;;4917942;28;88015;-44
2022/01/04 08:56:46;;;;;;;36.00;27.48;;;7.90;99.90;;;;;;4918059;28;90243;-34
2022/01/04 08:59:13;;;;;;;34.10;25.15;;;7.90;99.90;;;;;;4918279;28;90017;-38
2022/01/04 09:01:39;;;;;;;30.95;24.63;;;7.90;99.90;;;;;;4917617;28;89535;-37
2022/01/04 09:04:06;;;;;;;36.35;23.23;;;8.00;99.90;;;;;;4917574;28;88418;-42
2022/01/04 09:06:33;;;;;;;27.13;24.17;;;8.00;99.90;;;;;;4915903;28;90489;-44
2022/01/04 09:08:59;;;;;;;38.15;23.85;;;8.00;99.90;;;;;;4915575;28;89347;-37
2022/01/04 09:11:25;;;;;;;35.22;25.58;;;8.00;99.90;;;;;;4915363;28;89688;-36
2022/01/04 09:13:55;;;;;;;31.20;25.60;;;8.00;99.90;;;;;;4914485;28;88299;-38
2022/01/04 09:19:05;;;;;;;35.50;22.95;;;8.00;99.90;;;;;;4916010;28;89478;-35
2022/01/04 09:21:31;;;;;;;37.75;26.17;;;8.00;99.90;;;;;;4915070;28;89575;-38
2022/01/04 09:23:59;;;;;;;15.82;12.45;;;8.00;99.90;;;;;;4915766;28;87708;-38
2022/01/04 09:26:26;;;;;;;13.95;6.20;;;8.10;99.90;;;;;;4915252;28;88993;-41
2022/01/04 09:28:53;;;;;;;8.38;6.32;;;8.10;99.90;;;;;;4911800;28;91055;-45
2022/01/04 09:31:24;;;;;;;5.82;4.25;;;7.90;99.90;;;;;;4912012;28;90222;-40
2022/01/04 09:33:51;;;;;;;8.38;4.10;;;7.70;99.90;;;;;;4916029;28;87729;-41
2022/01/04 09:36:17;;;;;;;7.82;4.00;;;7.60;99.90;;;;;;4915762;28;90193;-41
2022/01/04 09:38:43;;;;;;;7.82;5.28;;;7.40;99.90;;;;;;4915752;28;89793;-35
2022/01/04 09:41:09;;;;;;;9.50;4.30;;;7.30;99.90;;;;;;4901642;28;89795;-40
2022/01/04 09:43:34;;;;;;;5.38;3.92;;;7.30;99.90;;;;;;4896570;28;87667;-35
2022/01/04 09:46:00;;;;;;;7.85;4.15;;;7.20;99.90;;;;;;4896741;28;89942;-41
2022/01/04 09:48:27;;;;;;;7.65;4.25;;;7.20;99.90;;;;;;4896459;28;89774;-39
2022/01/04 09:50:55;;;;;;;9.20;4.10;;;7.20;99.90;;;;;;4908345;28;90065;-38
2022/01/04 09:53:21;;;;;;;9.32;4.00;;;7.10;99.90;;;;;;4910405;28;88516;-45
2022/01/04 09:55:55;;;;;;;6.18;4.30;;;7.10;99.90;;;;;;4912719;28;90306;-38
2022/01/04 09:58:24;;;;;;;6.00;4.68;;;7.10;99.90;;;;;;4914311;28;89877;-46
2022/01/04 10:00:50;;;;;;;11.65;5.03;;;7.10;99.90;;;;;;4914907;28;89574;-44
2022/01/04 10:03:25;;;;;;;9.88;4.70;;;7.10;99.90;;;;;;4909580;28;88028;-43
2022/01/04 10:06:05;;;;;;;9.30;4.95;;;7.10;99.90;;;;;;4895527;28;90077;-38
2022/01/04 10:08:31;;;;;;;7.00;5.03;;;7.10;99.90;;;;;;4895499;28;89886;-38
2022/01/04 10:11:06;;;;;;;9.57;5.03;;;7.20;99.90;;;;;;4895256;28;89584;-41
2022/01/04 10:13:32;;;;;;;9.93;5.85;;;7.20;99.90;;;;;;4895891;28;87746;-36
2022/01/04 10:15:59;;;;;;;16.45;9.15;;;7.20;99.90;;;;;;4895823;28;90162;-42
2022/01/04 10:18:26;;;;;;;18.05;9.50;;;7.20;99.90;;;;;;4894806;28;90457;-39
2022/01/04 10:21:12;;;;;;;12.37;7.23;;;7.30;99.90;;;;;;4895232;28;89506;-41
2022/01/04 10:24:09;;;;;;;15.73;6.80;;;7.30;99.90;;;;;;4895698;28;87738;-44
2022/01/04 10:26:37;;;;;;;13.13;6.20;;;7.40;99.90;;;;;;4872140;28;90445;-38
2022/01/04 10:29:19;;;;;;;13.32;7.63;;;7.40;99.90;;;;;;4895513;28;89741;-33
2022/01/04 10:31:45;;;;;;;7.97;6.13;;;7.50;99.90;;;;;;4894558;28;89587;-43
2022/01/04 10:34:11;;;;;;;9.85;6.47;;;7.50;99.90;;;;;;4895817;28;87719;-38
2022/01/04 10:36:39;;;;;;;12.63;5.15;;;7.50;99.90;;;;;;4894820;28;90103;-37
2022/01/04 10:39:08;;;;;;;;;;;7.40;99.90;;;;;;4895936;28;90631;-41
2022/01/04 10:41:34;;;;;;;4.93;3.92;;;7.40;99.90;;;;;;4896201;28;89140;-39
2022/01/04 10:44:09;;;;;;;5.90;3.67;;;7.30;99.90;;;;;;4895354;28;89061;-34
2022/01/04 10:46:45;;;;;;;8.98;4.55;;;7.30;99.90;;;;;;4894651;28;90083;-37
2022/01/04 10:49:16;;;;;;;12.57;4.95;;;7.30;99.90;;;;;;4895429;28;90132;-37
2022/01/04 10:57:10;;;;;;;7.13;3.08;;;7.40;99.90;;;;;;4931546;28;88174;-38
2022/01/04 10:59:36;;;;;;;11.93;3.20;;;7.30;99.90;;;;;;4932476;28;89555;-39
2022/01/04 11:02:03;;;;;;;7.22;2.90;;;7.30;99.90;;;;;;4933017;28;89307;-39
2022/01/04 11:04:29;;;;;;;4.03;2.42;;;7.20;99.90;;;;;;4933290;28;87607;-35
2022/01/04 11:07:00;;;;;;;4.60;2.53;;;7.20;99.90;;;;;;4933556;28;90332;-41
2022/01/04 11:09:26;;;;;;;3.83;2.47;;;7.20;99.90;;;;;;4932868;28;90528;-41
2022/01/04 11:11:52;;;;;;;4.30;1.73;;;7.10;99.90;;;;;;4933546;28;90055;-38
2022/01/04 11:14:18;;;;;;;2.83;2.33;;;7.20;99.90;;;;;;4932996;28;87720;-40
2022/01/04 11:16:44;;;;;;;2.33;2.10;;;7.10;99.90;;;;;;4932849;28;90017;-40
2022/01/04 11:19:10;;;;;;;2.75;1.73;;;7.10;99.90;;;;;;4935975;28;89464;-37
2022/01/04 11:21:38;;;;;;;5.43;1.75;;;7.10;99.90;;;;;;4935855;28;89192;-38
2022/01/04 11:24:06;;;;;;;5.75;1.77;;;7.10;99.90;;;;;;4935147;28;87645;-36
2022/01/04 11:26:33;;;;;;;9.02;2.30;;;7.00;99.90;;;;;;4933872;28;89367;-39
2022/01/04 11:28:59;;;;;;;5.68;2.22;;;7.00;99.90;;;;;;4934851;28;89869;-37
2022/01/04 11:31:35;;;;;;;5.60;2.15;;;6.90;99.90;;;;;;4934983;28;88343;-39
2022/01/04 11:34:07;;;;;;;1.92;1.80;;;6.90;99.90;;;;;;4935460;28;87982;-40
2022/01/04 11:36:51;;;;;;;5.85;2.10;;;7.00;99.90;;;;;;4935654;28;90215;-37
2022/01/04 11:39:27;;;;;;;8.00;2.55;;;7.00;99.90;;;;;;4939719;28;89414;-36
2022/01/04 11:41:55;;;;;;;4.55;1.77;;;7.00;99.90;;;;;;4938977;28;89730;-42
2022/01/04 11:44:23;;;;;;;4.47;1.98;;;6.90;99.90;;;;;;4939144;28;88599;-35
2022/01/04 11:47:28;;;;;;;6.97;2.20;;;6.90;99.90;;;;;;4938962;28;90670;-40
2022/01/04 11:50:20;;;;;;;7.95;2.13;;;6.80;99.90;;;;;;4860305;29;88792;-43
2022/01/04 11:52:49;;;;;;;4.38;2.28;;;6.70;99.90;;;;;;4860398;29;89192;-35
2022/01/04 11:55:14;;;;;;;2.33;1.50;;;6.70;99.90;;;;;;4912948;28;87559;-38
2022/01/04 11:57:40;;;;;;;5.13;1.65;;;6.60;99.90;;;;;;4939030;28;90194;-39
2022/01/04 12:00:06;;;;;;;4.28;1.50;;;6.60;99.90;;;;;;4938000;28;90806;-37
2022/01/04 12:02:38;;;;;;;4.57;1.20;;;6.50;99.90;;;;;;4938810;28;89484;-35
2022/01/04 12:05:19;;;;;;;2.10;1.63;;;6.50;99.90;;;;;;4938761;28;87837;-38
2022/01/04 12:07:46;;;;;;;1.45;1.33;;;6.50;99.90;;;;;;4938659;28;90337;-40
2022/01/04 12:10:20;;;;;;;3.15;1.38;;;6.40;99.90;;;;;;4938918;28;89732;-37
2022/01/04 12:12:59;;;;;;;3.50;1.52;;;6.40;99.90;;;;;;4938815;28;90344;-36
2022/01/04 12:15:55;;;;;;;9.60;1.83;;;6.40;99.90;;;;;;4938818;28;87673;-45
2022/01/04 12:18:23;;;;;;;1.95;1.00;;;6.40;99.90;;;;;;4937607;28;90525;-39
2022/01/04 12:20:50;;;;;;;;;;;6.40;99.90;;;;;;4938973;28;88511;-38
2022/01/04 12:23:37;;;;;;;2.20;1.27;;;6.40;99.90;;;;;;4940049;28;89077;-36
2022/01/04 12:26:03;;;;;;;3.42;1.48;;;6.50;99.90;;;;;;4938498;28;87971;-36
2022/01/04 12:28:32;;;;;;;3.70;1.50;;;6.40;99.90;;;;;;4938530;28;89847;-35
2022/01/04 12:31:24;;;;;;;3.75;1.55;;;6.40;99.90;;;;;;4938435;28;90399;-40
2022/01/04 12:34:02;;;;;;;5.65;1.55;;;6.40;99.90;;;;;;4938740;28;89106;-37
2022/01/04 12:36:31;;;;;;;3.10;1.53;;;6.40;99.90;;;;;;4938540;28;87921;-38
2022/01/04 12:39:05;;;;;;;2.92;1.67;;;6.30;99.90;;;;;;4938139;28;89324;-38
2022/01/04 12:41:32;;;;;;;2.72;1.40;;;6.30;99.90;;;;;;4938332;28;89282;-35
2022/01/04 12:43:58;;;;;;;4.82;1.02;;;6.30;99.90;;;;;;4937875;28;88701;-42
2022/01/04 12:46:29;;;;;;;1.88;0.98;;;6.30;99.90;;;;;;4938746;28;88055;-37
2022/01/04 12:49:01;;;;;;;5.03;1.00;;;6.40;99.90;;;;;;4938453;28;90191;-35
2022/01/04 12:51:44;;;;;;;2.15;1.10;;;6.30;99.90;;;;;;4937370;28;90342;-41
2022/01/04 12:54:11;;;;;;;4.60;1.45;;;6.10;99.90;;;;;;4938209;28;90776;-42
2022/01/04 12:57:00;;;;;;;1.53;0.93;;;6.00;99.90;;;;;;4938068;28;88784;-39